sensor_id;sensor_type;location;lat;lon;timestamp;temperature;humidity
10678;DHT22;5387;48.722;9.110;2024-02-04T00:00:22;7.20;99.90
10678;DHT22;5387;48.722;9.110;2024-02-04T00:02:49;7.20;99.90
10678;DHT22;5387;48.722;9.110;2024-02-04T00:05:16;7.20;99.90
10678;DHT22;5387;48.722;9.110;2024-02-04T00:07:43;7.20;99.90
10678;DHT22;5387;48.722;9.110;2024-02-04T00:10:10;7.20;99.90
10678;DHT22;5387;48.722;9.110;2024-02-04T00:12:38;7.20;99.90
10678;DHT22;5387;48.722;9.110;2024-02-04T00:15:05;7.20;99.90
10678;DHT22;5387;48.722;9.110;2024-02-04T00:17:34;7.20;99.90
10678;DHT22;5387;48.722;9.110;2024-02-04T00:20:01;7.20;99.90
10678;DHT22;5387;48.722;9.110;2024-02-04T00:22:28;7.10;99.90
10678;DHT22;5387;48.722;9.110;2024-02-04T00:24:55;7.10;99.90
10678;DHT22;5387;48.722;9.110;2024-02-04T00:27:27;7.10;99.90
10678;DHT22;5387;48.722;9.110;2024-02-04T00:29:53;7.20;99.90
10678;DHT22;5387;48.722;9.110;2024-02-04T00:32:20;7.10;99.90
10678;DHT22;5387;48.722;9.110;2024-02-04T00:34:48;6.90;99.90
10678;DHT22;5387;48.722;9.110;2024-02-04T00:37:15;7.00;99.90
10678;DHT22;5387;48.722;9.110;2024-02-04T00:39:42;7.00;99.90
10678;DHT22;5387;48.722;9.110;2024-02-04T00:42:09;6.90;99.90
10678;DHT22;5387;48.722;9.110;2024-02-04T00:44:36;6.80;99.90
10678;DHT22;5387;48.722;9.110;2024-02-04T00:47:03;6.90;99.90
10678;DHT22;5387;48.722;9.110;2024-02-04T00:49:29;6.80;99.90
10678;DHT22;5387;48.722;9.110;2024-02-04T00:51:58;6.80;99.90
10678;DHT22;5387;48.722;9.110;2024-02-04T00:54:24;6.80;99.90
10678;DHT22;5387;48.722;9.110;2024-02-04T00:56:51;6.70;99.90
10678;DHT22;5387;48.722;9.110;2024-02-04T00:59:18;6.80;99.90
10678;DHT22;5387;48.722;9.110;2024-02-04T01:01:45;6.70;99.90
10678;DHT22;5387;48.722;9.110;2024-02-04T01:04:12;6.80;99.90
10678;DHT22;5387;48.722;9.110;2024-02-04T01:06:38;6.80;99.90
10678;DHT22;5387;48.722;9.110;2024-02-04T01:09:06;6.70;99.90
10678;DHT22;5387;48.722;9.110;2024-02-04T01:11:33;6.70;99.90
10678;DHT22;5387;48.722;9.110;2024-02-04T01:14:00;6.70;99.90
10678;DHT22;5387;48.722;9.110;2024-02-04T01:16:27;6.60;99.90
10678;DHT22;5387;48.722;9.110;2024-02-04T01:18:54;6.70;99.90
10678;DHT22;5387;48.722;9.110;2024-02-04T01:21:21;6.70;99.90
10678;DHT22;5387;48.722;9.110;2024-02-04T01:23:48;6.80;99.90
10678;DHT22;5387;48.722;9.110;2024-02-04T01:26:16;6.60;99.90
10678;DHT22;5387;48.722;9.110;2024-02-04T01:28:43;6.60;99.90
10678;DHT22;5387;48.722;9.110;2024-02-04T01:31:10;6.50;99.90
10678;DHT22;5387;48.722;9.110;2024-02-04T01:33:36;6.50;99.90
10678;DHT22;5387;48.722;9.110;2024-02-04T01:36:04;6.40;99.90
10678;DHT22;5387;48.722;9.110;2024-02-04T01:38:31;6.30;99.90
10678;DHT22;5387;48.722;9.110;2024-02-04T01:40:57;6.30;99.90
10678;DHT22;5387;48.722;9.110;2024-02-04T01:43:25;6.40;99.90
10678;DHT22;5387;48.722;9.110;2024-02-04T01:45:52;6.50;99.90
10678;DHT22;5387;48.722;9.110;2024-02-04T01:48:20;6.40;99.90
10678;DHT22;5387;48.722;9.110;2024-02-04T01:50:50;6.50;99.90
10678;DHT22;5387;48.722;9.110;2024-02-04T01:53:17;6.40;99.90
10678;DHT22;5387;48.722;9.110;2024-02-04T01:55:45;6.40;99.90
10678;DHT22;5387;48.722;9.110;2024-02-04T01:58:13;6.30;99.90
10678;DHT22;5387;48.722;9.110;2024-02-04T02:00:42;6.40;99.90
10678;DHT22;5387;48.722;9.110;2024-02-04T02:03:11;6.40;99.90
10678;DHT22;5387;48.722;9.110;2024-02-04T02:05:40;6.50;99.90
10678;DHT22;5387;48.722;9.110;2024-02-04T02:08:06;6.50;99.90
10678;DHT22;5387;48.722;9.110;2024-02-04T02:10:33;6.60;99.90
10678;DHT22;5387;48.722;9.110;2024-02-04T02:13:06;6.60;99.90
10678;DHT22;5387;48.722;9.110;2024-02-04T02:15:37;6.70;99.90
10678;DHT22;5387;48.722;9.110;2024-02-04T02:18:11;6.70;99.90
10678;DHT22;5387;48.722;9.110;2024-02-04T02:20:54;6.70;99.90
10678;DHT22;5387;48.722;9.110;2024-02-04T02:23:23;6.70;99.90
10678;DHT22;5387;48.722;9.110;2024-02-04T02:25:57;6.60;99.90
10678;DHT22;5387;48.722;9.110;2024-02-04T02:28:24;6.50;99.90
10678;DHT22;5387;48.722;9.110;2024-02-04T02:30:51;6.50;99.90
10678;DHT22;5387;48.722;9.110;2024-02-04T02:33:18;6.40;99.90
10678;DHT22;5387;48.722;9.110;2024-02-04T02:35:46;6.50;99.90
10678;DHT22;5387;48.722;9.110;2024-02-04T02:38:20;6.50;99.90
10678;DHT22;5387;48.722;9.110;2024-02-04T02:40:54;6.50;99.90
10678;DHT22;5387;48.722;9.110;2024-02-04T02:43:23;6.50;99.90
10678;DHT22;5387;48.722;9.110;2024-02-04T02:45:50;6.30;99.90
10678;DHT22;5387;48.722;9.110;2024-02-04T02:48:18;6.60;99.90
10678;DHT22;5387;48.722;9.110;2024-02-04T02:50:45;6.50;99.90
10678;DHT22;5387;48.722;9.110;2024-02-04T02:53:12;6.50;99.90
10678;DHT22;5387;48.722;9.110;2024-02-04T02:55:38;6.50;99.90
10678;DHT22;5387;48.722;9.110;2024-02-04T02:58:06;6.60;99.90
10678;DHT22;5387;48.722;9.110;2024-02-04T03:00:34;6.60;99.90
10678;DHT22;5387;48.722;9.110;2024-02-04T03:03:01;6.50;99.90
10678;DHT22;5387;48.722;9.110;2024-02-04T03:05:27;6.80;99.90
10678;DHT22;5387;48.722;9.110;2024-02-04T03:07:54;6.70;99.90
10678;DHT22;5387;48.722;9.110;2024-02-04T03:10:21;6.60;99.90
10678;DHT22;5387;48.722;9.110;2024-02-04T03:12:48;6.60;99.90
10678;DHT22;5387;48.722;9.110;2024-02-04T03:15:15;6.60;99.90
10678;DHT22;5387;48.722;9.110;2024-02-04T03:17:43;6.70;99.90
10678;DHT22;5387;48.722;9.110;2024-02-04T03:20:11;6.70;99.90
10678;DHT22;5387;48.722;9.110;2024-02-04T03:22:38;6.70;99.90
10678;DHT22;5387;48.722;9.110;2024-02-04T03:25:05;6.60;99.90
10678;DHT22;5387;48.722;9.110;2024-02-04T03:27:32;6.70;99.90
10678;DHT22;5387;48.722;9.110;2024-02-04T03:29:59;6.60;99.90
10678;DHT22;5387;48.722;9.110;2024-02-04T03:32:26;6.60;99.90
10678;DHT22;5387;48.722;9.110;2024-02-04T03:34:56;6.70;99.90
10678;DHT22;5387;48.722;9.110;2024-02-04T03:37:22;6.70;99.90
10678;DHT22;5387;48.722;9.110;2024-02-04T03:39:49;6.70;99.90
10678;DHT22;5387;48.722;9.110;2024-02-04T03:42:16;6.70;99.90
10678;DHT22;5387;48.722;9.110;2024-02-04T03:44:43;6.80;99.90
10678;DHT22;5387;48.722;9.110;2024-02-04T03:47:10;6.80;99.90
10678;DHT22;5387;48.722;9.110;2024-02-04T03:49:37;6.80;99.90
10678;DHT22;5387;48.722;9.110;2024-02-04T03:52:05;6.80;99.90
10678;DHT22;5387;48.722;9.110;2024-02-04T03:54:32;6.80;99.90
10678;DHT22;5387;48.722;9.110;2024-02-04T03:56:59;6.80;99.90
10678;DHT22;5387;48.722;9.110;2024-02-04T03:59:26;6.90;99.90
10678;DHT22;5387;48.722;9.110;2024-02-04T04:01:52;6.90;99.90
10678;DHT22;5387;48.722;9.110;2024-02-04T04:04:20;6.90;99.90
10678;DHT22;5387;48.722;9.110;2024-02-04T04:06:47;6.90;99.90
10678;DHT22;5387;48.722;9.110;2024-02-04T04:09:15;6.80;99.90
10678;DHT22;5387;48.722;9.110;2024-02-04T04:11:42;6.90;99.90
10678;DHT22;5387;48.722;9.110;2024-02-04T04:14:09;7.00;99.90
10678;DHT22;5387;48.722;9.110;2024-02-04T04:16:35;6.90;99.90
10678;DHT22;5387;48.722;9.110;2024-02-04T04:19:02;6.90;99.90
10678;DHT22;5387;48.722;9.110;2024-02-04T04:21:29;6.90;99.90
10678;DHT22;5387;48.722;9.110;2024-02-04T04:23:56;7.00;99.90
10678;DHT22;5387;48.722;9.110;2024-02-04T04:26:24;7.00;99.90
10678;DHT22;5387;48.722;9.110;2024-02-04T04:28:51;7.00;99.90
10678;DHT22;5387;48.722;9.110;2024-02-04T04:31:18;7.00;99.90
10678;DHT22;5387;48.722;9.110;2024-02-04T04:33:45;7.00;99.90
10678;DHT22;5387;48.722;9.110;2024-02-04T04:36:11;7.00;99.90
10678;DHT22;5387;48.722;9.110;2024-02-04T04:38:38;7.00;99.90
10678;DHT22;5387;48.722;9.110;2024-02-04T04:41:05;6.90;99.90
10678;DHT22;5387;48.722;9.110;2024-02-04T04:43:36;6.90;99.90
10678;DHT22;5387;48.722;9.110;2024-02-04T04:46:03;6.90;99.90
10678;DHT22;5387;48.722;9.110;2024-02-04T04:48:30;6.80;99.90
10678;DHT22;5387;48.722;9.110;2024-02-04T04:50:56;6.80;99.90
10678;DHT22;5387;48.722;9.110;2024-02-04T04:53:23;6.80;99.90
10678;DHT22;5387;48.722;9.110;2024-02-04T04:55:50;6.80;99.90
10678;DHT22;5387;48.722;9.110;2024-02-04T04:58:17;6.70;99.90
10678;DHT22;5387;48.722;9.110;2024-02-04T05:00:45;6.70;99.90
10678;DHT22;5387;48.722;9.110;2024-02-04T05:03:12;6.60;99.90
10678;DHT22;5387;48.722;9.110;2024-02-04T05:05:38;6.60;99.90
10678;DHT22;5387;48.722;9.110;2024-02-04T05:08:05;6.50;99.90
10678;DHT22;5387;48.722;9.110;2024-02-04T05:10:32;6.50;99.90
10678;DHT22;5387;48.722;9.110;2024-02-04T05:12:59;6.40;99.90
10678;DHT22;5387;48.722;9.110;2024-02-04T05:15:26;6.40;99.90
10678;DHT22;5387;48.722;9.110;2024-02-04T05:17:54;6.40;99.90
10678;DHT22;5387;48.722;9.110;2024-02-04T05:20:21;6.40;99.90
10678;DHT22;5387;48.722;9.110;2024-02-04T05:22:47;6.40;99.90
10678;DHT22;5387;48.722;9.110;2024-02-04T05:25:14;6.40;99.90
10678;DHT22;5387;48.722;9.110;2024-02-04T05:27:41;6.40;99.90
10678;DHT22;5387;48.722;9.110;2024-02-04T05:30:08;6.50;99.90
10678;DHT22;5387;48.722;9.110;2024-02-04T05:32:35;6.50;99.90
10678;DHT22;5387;48.722;9.110;2024-02-04T05:35:04;6.50;99.90
10678;DHT22;5387;48.722;9.110;2024-02-04T05:37:31;6.60;99.90
10678;DHT22;5387;48.722;9.110;2024-02-04T05:39:58;6.60;99.90
10678;DHT22;5387;48.722;9.110;2024-02-04T05:42:25;6.60;99.90
10678;DHT22;5387;48.722;9.110;2024-02-04T05:44:52;6.60;99.90
10678;DHT22;5387;48.722;9.110;2024-02-04T05:47:18;6.60;99.90
10678;DHT22;5387;48.722;9.110;2024-02-04T05:49:45;6.60;99.90
10678;DHT22;5387;48.722;9.110;2024-02-04T05:52:14;6.60;99.90
10678;DHT22;5387;48.722;9.110;2024-02-04T05:54:41;6.60;99.90
10678;DHT22;5387;48.722;9.110;2024-02-04T05:57:08;6.60;99.90
10678;DHT22;5387;48.722;9.110;2024-02-04T05:59:36;6.60;99.90
10678;DHT22;5387;48.722;9.110;2024-02-04T06:02:04;6.70;99.90
10678;DHT22;5387;48.722;9.110;2024-02-04T06:04:31;6.70;99.90
10678;DHT22;5387;48.722;9.110;2024-02-04T06:06:58;6.70;99.90
10678;DHT22;5387;48.722;9.110;2024-02-04T06:09:26;6.60;99.90
10678;DHT22;5387;48.722;9.110;2024-02-04T06:11:53;6.60;99.90
10678;DHT22;5387;48.722;9.110;2024-02-04T06:14:19;6.70;99.90
10678;DHT22;5387;48.722;9.110;2024-02-04T06:16:46;6.70;99.90
10678;DHT22;5387;48.722;9.110;2024-02-04T06:19:13;6.80;99.90
10678;DHT22;5387;48.722;9.110;2024-02-04T06:21:40;6.90;99.90
10678;DHT22;5387;48.722;9.110;2024-02-04T06:24:07;6.80;99.90
10678;DHT22;5387;48.722;9.110;2024-02-04T06:26:37;6.80;99.90
10678;DHT22;5387;48.722;9.110;2024-02-04T06:29:04;6.90;99.90
10678;DHT22;5387;48.722;9.110;2024-02-04T06:31:31;6.90;99.90
10678;DHT22;5387;48.722;9.110;2024-02-04T06:33:57;6.90;99.90
10678;DHT22;5387;48.722;9.110;2024-02-04T06:36:24;6.90;99.90
10678;DHT22;5387;48.722;9.110;2024-02-04T06:38:51;6.90;99.90
10678;DHT22;5387;48.722;9.110;2024-02-04T06:41:18;7.00;99.90
10678;DHT22;5387;48.722;9.110;2024-02-04T06:43:46;6.90;99.90
10678;DHT22;5387;48.722;9.110;2024-02-04T06:46:12;6.90;99.90
10678;DHT22;5387;48.722;9.110;2024-02-04T06:48:39;6.90;99.90
10678;DHT22;5387;48.722;9.110;2024-02-04T06:51:06;6.80;99.90
10678;DHT22;5387;48.722;9.110;2024-02-04T06:53:33;6.80;99.90
10678;DHT22;5387;48.722;9.110;2024-02-04T06:56:00;6.80;99.90
10678;DHT22;5387;48.722;9.110;2024-02-04T06:58:26;6.80;99.90
10678;DHT22;5387;48.722;9.110;2024-02-04T07:00:54;6.80;99.90
10678;DHT22;5387;48.722;9.110;2024-02-04T07:03:21;6.80;99.90
10678;DHT22;5387;48.722;9.110;2024-02-04T07:05:48;6.80;99.90
10678;DHT22;5387;48.722;9.110;2024-02-04T07:08:15;6.80;99.90
10678;DHT22;5387;48.722;9.110;2024-02-04T07:10:43;6.80;99.90
10678;DHT22;5387;48.722;9.110;2024-02-04T07:13:09;6.80;99.90
10678;DHT22;5387;48.722;9.110;2024-02-04T07:15:37;6.70;99.90
10678;DHT22;5387;48.722;9.110;2024-02-04T07:18:05;6.70;99.90
10678;DHT22;5387;48.722;9.110;2024-02-04T07:20:32;6.80;99.90
10678;DHT22;5387;48.722;9.110;2024-02-04T07:22:59;6.70;99.90
10678;DHT22;5387;48.722;9.110;2024-02-04T07:25:25;6.60;99.90
10678;DHT22;5387;48.722;9.110;2024-02-04T07:27:53;6.70;99.90
10678;DHT22;5387;48.722;9.110;2024-02-04T07:30:20;6.60;99.90
10678;DHT22;5387;48.722;9.110;2024-02-04T07:32:47;6.70;99.90
10678;DHT22;5387;48.722;9.110;2024-02-04T07:35:15;6.80;99.90
10678;DHT22;5387;48.722;9.110;2024-02-04T07:37:42;6.80;99.90
10678;DHT22;5387;48.722;9.110;2024-02-04T07:40:10;6.80;99.90
10678;DHT22;5387;48.722;9.110;2024-02-04T07:42:37;6.90;99.90
10678;DHT22;5387;48.722;9.110;2024-02-04T07:45:04;6.90;99.90
10678;DHT22;5387;48.722;9.110;2024-02-04T07:47:34;7.10;99.90
10678;DHT22;5387;48.722;9.110;2024-02-04T07:50:01;7.20;99.90
10678;DHT22;5387;48.722;9.110;2024-02-04T07:52:29;7.30;99.90
10678;DHT22;5387;48.722;9.110;2024-02-04T07:54:56;7.30;99.90
10678;DHT22;5387;48.722;9.110;2024-02-04T07:57:23;7.20;99.90
10678;DHT22;5387;48.722;9.110;2024-02-04T07:59:50;7.20;99.90
10678;DHT22;5387;48.722;9.110;2024-02-04T08:02:17;7.10;99.90
10678;DHT22;5387;48.722;9.110;2024-02-04T08:04:44;7.20;99.90
10678;DHT22;5387;48.722;9.110;2024-02-04T08:07:11;7.10;99.90
10678;DHT22;5387;48.722;9.110;2024-02-04T08:09:39;7.10;99.90
10678;DHT22;5387;48.722;9.110;2024-02-04T08:12:07;7.00;99.90
10678;DHT22;5387;48.722;9.110;2024-02-04T08:14:35;7.10;99.90
10678;DHT22;5387;48.722;9.110;2024-02-04T08:17:02;7.10;99.90
10678;DHT22;5387;48.722;9.110;2024-02-04T08:19:28;7.00;99.90
10678;DHT22;5387;48.722;9.110;2024-02-04T08:21:55;7.00;99.90
10678;DHT22;5387;48.722;9.110;2024-02-04T08:24:22;7.10;99.90
10678;DHT22;5387;48.722;9.110;2024-02-04T08:26:50;7.20;99.90
10678;DHT22;5387;48.722;9.110;2024-02-04T08:29:18;7.20;99.90
10678;DHT22;5387;48.722;9.110;2024-02-04T08:31:45;7.30;99.90
10678;DHT22;5387;48.722;9.110;2024-02-04T08:34:12;7.40;99.90
10678;DHT22;5387;48.722;9.110;2024-02-04T08:36:38;7.50;99.90
10678;DHT22;5387;48.722;9.110;2024-02-04T08:39:05;7.60;99.90
10678;DHT22;5387;48.722;9.110;2024-02-04T08:41:32;7.80;99.90
10678;DHT22;5387;48.722;9.110;2024-02-04T08:44:00;8.00;99.90
10678;DHT22;5387;48.722;9.110;2024-02-04T08:46:27;8.00;99.90
10678;DHT22;5387;48.722;9.110;2024-02-04T08:48:54;8.00;99.90
10678;DHT22;5387;48.722;9.110;2024-02-04T08:51:20;8.20;99.90
10678;DHT22;5387;48.722;9.110;2024-02-04T08:53:47;8.30;99.90
10678;DHT22;5387;48.722;9.110;2024-02-04T08:56:14;8.30;99.90
10678;DHT22;5387;48.722;9.110;2024-02-04T08:58:41;8.30;99.90
10678;DHT22;5387;48.722;9.110;2024-02-04T09:01:09;8.40;99.90
10678;DHT22;5387;48.722;9.110;2024-02-04T09:03:35;8.40;99.90
10678;DHT22;5387;48.722;9.110;2024-02-04T09:06:02;8.40;99.90
10678;DHT22;5387;48.722;9.110;2024-02-04T09:08:30;8.40;99.90
10678;DHT22;5387;48.722;9.110;2024-02-04T09:10:57;8.40;99.90
10678;DHT22;5387;48.722;9.110;2024-02-04T09:13:23;8.40;99.90
10678;DHT22;5387;48.722;9.110;2024-02-04T09:15:50;8.50;99.90
10678;DHT22;5387;48.722;9.110;2024-02-04T09:18:19;8.30;99.90
10678;DHT22;5387;48.722;9.110;2024-02-04T09:20:47;8.30;99.90
10678;DHT22;5387;48.722;9.110;2024-02-04T09:23:14;8.30;99.90
10678;DHT22;5387;48.722;9.110;2024-02-04T09:25:41;8.40;99.90
10678;DHT22;5387;48.722;9.110;2024-02-04T09:28:07;8.40;99.90
10678;DHT22;5387;48.722;9.110;2024-02-04T09:30:34;8.40;99.90
10678;DHT22;5387;48.722;9.110;2024-02-04T09:33:01;8.50;99.90
10678;DHT22;5387;48.722;9.110;2024-02-04T09:35:30;8.50;99.90
10678;DHT22;5387;48.722;9.110;2024-02-04T09:37:56;8.60;99.90
10678;DHT22;5387;48.722;9.110;2024-02-04T09:40:23;8.80;99.90
10678;DHT22;5387;48.722;9.110;2024-02-04T09:42:50;8.90;99.90
10678;DHT22;5387;48.722;9.110;2024-02-04T09:45:18;9.10;99.90
10678;DHT22;5387;48.722;9.110;2024-02-04T09:47:45;9.40;99.90
10678;DHT22;5387;48.722;9.110;2024-02-04T09:50:12;9.60;99.90
10678;DHT22;5387;48.722;9.110;2024-02-04T09:52:40;9.80;99.90
10678;DHT22;5387;48.722;9.110;2024-02-04T09:55:13;9.80;99.90
10678;DHT22;5387;48.722;9.110;2024-02-04T09:57:41;9.70;99.90
10678;DHT22;5387;48.722;9.110;2024-02-04T10:00:10;10.10;99.90
10678;DHT22;5387;48.722;9.110;2024-02-04T10:02:37;10.20;99.90
10678;DHT22;5387;48.722;9.110;2024-02-04T10:05:04;10.00;99.90
10678;DHT22;5387;48.722;9.110;2024-02-04T10:07:31;10.10;99.90
10678;DHT22;5387;48.722;9.110;2024-02-04T10:09:59;10.00;99.90
10678;DHT22;5387;48.722;9.110;2024-02-04T10:12:26;10.00;99.90
10678;DHT22;5387;48.722;9.110;2024-02-04T10:14:53;9.70;99.90
10678;DHT22;5387;48.722;9.110;2024-02-04T10:17:20;9.80;99.90
10678;DHT22;5387;48.722;9.110;2024-02-04T10:19:47;9.80;99.90
10678;DHT22;5387;48.722;9.110;2024-02-04T10:22:14;9.80;99.90
10678;DHT22;5387;48.722;9.110;2024-02-04T10:24:42;10.00;99.90
10678;DHT22;5387;48.722;9.110;2024-02-04T10:27:11;10.10;99.90
10678;DHT22;5387;48.722;9.110;2024-02-04T10:29:38;9.90;99.90
10678;DHT22;5387;48.722;9.110;2024-02-04T10:32:06;10.10;99.90
10678;DHT22;5387;48.722;9.110;2024-02-04T10:34:36;10.20;99.90
10678;DHT22;5387;48.722;9.110;2024-02-04T10:37:04;10.40;99.90
10678;DHT22;5387;48.722;9.110;2024-02-04T10:39:30;10.40;99.90
10678;DHT22;5387;48.722;9.110;2024-02-04T10:42:02;10.30;99.90
10678;DHT22;5387;48.722;9.110;2024-02-04T10:44:35;10.30;99.90
10678;DHT22;5387;48.722;9.110;2024-02-04T10:47:05;10.30;99.90
10678;DHT22;5387;48.722;9.110;2024-02-04T10:49:34;10.40;99.90
10678;DHT22;5387;48.722;9.110;2024-02-04T10:52:06;10.30;99.90
10678;DHT22;5387;48.722;9.110;2024-02-04T10:54:35;10.30;99.90
10678;DHT22;5387;48.722;9.110;2024-02-04T10:57:05;10.40;99.90
10678;DHT22;5387;48.722;9.110;2024-02-04T10:59:38;10.30;99.90
10678;DHT22;5387;48.722;9.110;2024-02-04T11:02:05;10.20;99.90
10678;DHT22;5387;48.722;9.110;2024-02-04T11:04:32;10.20;99.90
10678;DHT22;5387;48.722;9.110;2024-02-04T11:07:01;10.10;99.90
10678;DHT22;5387;48.722;9.110;2024-02-04T11:09:29;10.30;99.90
10678;DHT22;5387;48.722;9.110;2024-02-04T11:11:59;10.50;99.90
10678;DHT22;5387;48.722;9.110;2024-02-04T11:14:27;10.60;99.90
10678;DHT22;5387;48.722;9.110;2024-02-04T11:20:23;10.70;99.90
10678;DHT22;5387;48.722;9.110;2024-02-04T11:23:06;10.90;99.90
10678;DHT22;5387;48.722;9.110;2024-02-04T11:25:43;11.20;99.90
10678;DHT22;5387;48.722;9.110;2024-02-04T11:28:11;11.40;99.90
10678;DHT22;5387;48.722;9.110;2024-02-04T11:30:38;11.30;99.90
10678;DHT22;5387;48.722;9.110;2024-02-04T11:33:07;11.10;99.90
10678;DHT22;5387;48.722;9.110;2024-02-04T11:35:33;11.40;99.90
10678;DHT22;5387;48.722;9.110;2024-02-04T11:38:00;11.60;99.90
10678;DHT22;5387;48.722;9.110;2024-02-04T11:40:30;11.50;99.90
10678;DHT22;5387;48.722;9.110;2024-02-04T11:43:04;11.50;99.90
10678;DHT22;5387;48.722;9.110;2024-02-04T11:45:31;11.50;99.90
10678;DHT22;5387;48.722;9.110;2024-02-04T11:48:01;11.60;99.90
10678;DHT22;5387;48.722;9.110;2024-02-04T11:50:30;11.40;99.90
10678;DHT22;5387;48.722;9.110;2024-02-04T11:53:05;11.60;99.90
10678;DHT22;5387;48.722;9.110;2024-02-04T11:55:33;11.90;99.90
10678;DHT22;5387;48.722;9.110;2024-02-04T11:58:00;11.90;99.90
10678;DHT22;5387;48.722;9.110;2024-02-04T12:00:27;11.90;99.90
10678;DHT22;5387;48.722;9.110;2024-02-04T12:03:01;11.60;99.90
10678;DHT22;5387;48.722;9.110;2024-02-04T12:05:31;11.30;99.90
10678;DHT22;5387;48.722;9.110;2024-02-04T12:08:00;11.20;99.90
10678;DHT22;5387;48.722;9.110;2024-02-04T12:10:27;11.20;99.90
10678;DHT22;5387;48.722;9.110;2024-02-04T12:12:56;11.20;99.90
10678;DHT22;5387;48.722;9.110;2024-02-04T12:15:23;11.00;99.90
10678;DHT22;5387;48.722;9.110;2024-02-04T12:18:10;11.10;99.90
10678;DHT22;5387;48.722;9.110;2024-02-04T12:20:40;11.00;99.90
10678;DHT22;5387;48.722;9.110;2024-02-04T12:23:07;11.10;99.90
10678;DHT22;5387;48.722;9.110;2024-02-04T12:25:34;11.10;99.90
10678;DHT22;5387;48.722;9.110;2024-02-04T12:28:02;11.00;99.90
10678;DHT22;5387;48.722;9.110;2024-02-04T12:30:30;11.00;99.90
10678;DHT22;5387;48.722;9.110;2024-02-04T12:32:57;10.80;99.90
10678;DHT22;5387;48.722;9.110;2024-02-04T12:35:26;10.60;99.90
10678;DHT22;5387;48.722;9.110;2024-02-04T12:37:54;10.60;99.90
10678;DHT22;5387;48.722;9.110;2024-02-04T12:40:21;10.60;99.90
10678;DHT22;5387;48.722;9.110;2024-02-04T12:42:53;10.70;99.90
10678;DHT22;5387;48.722;9.110;2024-02-04T12:45:20;10.70;99.90
10678;DHT22;5387;48.722;9.110;2024-02-04T12:47:49;10.80;99.90
10678;DHT22;5387;48.722;9.110;2024-02-04T12:50:16;10.80;99.90
10678;DHT22;5387;48.722;9.110;2024-02-04T12:52:45;11.00;99.90
10678;DHT22;5387;48.722;9.110;2024-02-04T12:55:24;11.10;99.90
10678;DHT22;5387;48.722;9.110;2024-02-04T12:58:02;11.20;99.90
10678;DHT22;5387;48.722;9.110;2024-02-04T13:00:30;11.20;99.90
10678;DHT22;5387;48.722;9.110;2024-02-04T13:02:57;11.50;99.90
10678;DHT22;5387;48.722;9.110;2024-02-04T13:05:24;11.60;99.90
10678;DHT22;5387;48.722;9.110;2024-02-04T13:07:54;11.90;99.90
10678;DHT22;5387;48.722;9.110;2024-02-04T13:10:23;12.00;99.90
10678;DHT22;5387;48.722;9.110;2024-02-04T13:12:58;11.90;99.90
10678;DHT22;5387;48.722;9.110;2024-02-04T13:15:26;11.90;99.90
10678;DHT22;5387;48.722;9.110;2024-02-04T13:17:53;12.00;99.90
10678;DHT22;5387;48.722;9.110;2024-02-04T13:20:20;12.10;99.90
10678;DHT22;5387;48.722;9.110;2024-02-04T13:22:47;11.90;99.90
10678;DHT22;5387;48.722;9.110;2024-02-04T13:25:15;11.80;99.90
10678;DHT22;5387;48.722;9.110;2024-02-04T13:27:42;11.40;99.90
10678;DHT22;5387;48.722;9.110;2024-02-04T13:30:09;11.20;99.90
10678;DHT22;5387;48.722;9.110;2024-02-04T13:32:38;11.00;99.90
10678;DHT22;5387;48.722;9.110;2024-02-04T13:35:06;10.80;99.90
10678;DHT22;5387;48.722;9.110;2024-02-04T13:37:34;10.90;99.90
10678;DHT22;5387;48.722;9.110;2024-02-04T13:40:01;10.90;99.90
10678;DHT22;5387;48.722;9.110;2024-02-04T13:42:31;10.80;99.90
10678;DHT22;5387;48.722;9.110;2024-02-04T13:44:58;10.80;99.90
10678;DHT22;5387;48.722;9.110;2024-02-04T13:47:25;10.60;99.90
10678;DHT22;5387;48.722;9.110;2024-02-04T13:49:51;10.80;99.90
10678;DHT22;5387;48.722;9.110;2024-02-04T13:52:18;10.80;99.90
10678;DHT22;5387;48.722;9.110;2024-02-04T13:54:45;10.80;99.90
10678;DHT22;5387;48.722;9.110;2024-02-04T13:57:12;10.80;99.90
10678;DHT22;5387;48.722;9.110;2024-02-04T13:59:40;10.80;99.90
10678;DHT22;5387;48.722;9.110;2024-02-04T14:02:07;10.80;99.90
10678;DHT22;5387;48.722;9.110;2024-02-04T14:04:34;10.70;99.90
10678;DHT22;5387;48.722;9.110;2024-02-04T14:07:01;10.80;99.90
10678;DHT22;5387;48.722;9.110;2024-02-04T14:09:28;10.60;99.90
10678;DHT22;5387;48.722;9.110;2024-02-04T14:11:55;10.60;99.90
10678;DHT22;5387;48.722;9.110;2024-02-04T14:14:22;10.60;99.90
10678;DHT22;5387;48.722;9.110;2024-02-04T14:16:51;10.50;99.90
10678;DHT22;5387;48.722;9.110;2024-02-04T14:19:17;10.50;99.90
10678;DHT22;5387;48.722;9.110;2024-02-04T14:21:44;10.30;99.90
10678;DHT22;5387;48.722;9.110;2024-02-04T14:24:12;10.30;99.90
10678;DHT22;5387;48.722;9.110;2024-02-04T14:26:39;10.20;99.90
10678;DHT22;5387;48.722;9.110;2024-02-04T14:29:07;10.20;99.90
10678;DHT22;5387;48.722;9.110;2024-02-04T14:31:34;10.30;99.90
10678;DHT22;5387;48.722;9.110;2024-02-04T14:34:02;10.30;99.90
10678;DHT22;5387;48.722;9.110;2024-02-04T14:36:29;10.20;99.90
10678;DHT22;5387;48.722;9.110;2024-02-04T14:38:56;10.20;99.90
10678;DHT22;5387;48.722;9.110;2024-02-04T14:41:23;10.00;99.90
10678;DHT22;5387;48.722;9.110;2024-02-04T14:43:50;9.90;99.90
10678;DHT22;5387;48.722;9.110;2024-02-04T14:46:17;9.80;99.90
10678;DHT22;5387;48.722;9.110;2024-02-04T14:48:44;9.80;99.90
10678;DHT22;5387;48.722;9.110;2024-02-04T14:51:12;9.80;99.90
10678;DHT22;5387;48.722;9.110;2024-02-04T14:53:39;9.90;99.90
10678;DHT22;5387;48.722;9.110;2024-02-04T14:56:06;9.70;99.90
10678;DHT22;5387;48.722;9.110;2024-02-04T14:58:35;9.80;99.90
10678;DHT22;5387;48.722;9.110;2024-02-04T15:01:02;9.70;99.90
10678;DHT22;5387;48.722;9.110;2024-02-04T15:03:29;9.70;99.90
10678;DHT22;5387;48.722;9.110;2024-02-04T15:05:56;9.70;99.90
10678;DHT22;5387;48.722;9.110;2024-02-04T15:08:24;9.70;99.90
10678;DHT22;5387;48.722;9.110;2024-02-04T15:10:51;9.70;99.90
10678;DHT22;5387;48.722;9.110;2024-02-04T15:13:18;9.70;99.90
10678;DHT22;5387;48.722;9.110;2024-02-04T15:15:45;9.60;99.90
10678;DHT22;5387;48.722;9.110;2024-02-04T15:18:13;9.60;99.90
10678;DHT22;5387;48.722;9.110;2024-02-04T15:20:41;9.60;99.90
10678;DHT22;5387;48.722;9.110;2024-02-04T15:23:08;9.60;99.90
10678;DHT22;5387;48.722;9.110;2024-02-04T15:25:37;9.50;99.90
10678;DHT22;5387;48.722;9.110;2024-02-04T15:28:05;9.50;99.90
10678;DHT22;5387;48.722;9.110;2024-02-04T15:30:33;9.50;99.90
10678;DHT22;5387;48.722;9.110;2024-02-04T15:33:00;9.40;99.90
10678;DHT22;5387;48.722;9.110;2024-02-04T15:35:28;9.40;99.90
10678;DHT22;5387;48.722;9.110;2024-02-04T15:37:55;9.40;99.90
10678;DHT22;5387;48.722;9.110;2024-02-04T15:40:24;9.30;99.90
10678;DHT22;5387;48.722;9.110;2024-02-04T15:42:52;9.20;99.90
10678;DHT22;5387;48.722;9.110;2024-02-04T15:45:19;9.20;99.90
10678;DHT22;5387;48.722;9.110;2024-02-04T15:47:49;9.00;99.90
10678;DHT22;5387;48.722;9.110;2024-02-04T15:50:17;9.00;99.90
10678;DHT22;5387;48.722;9.110;2024-02-04T15:52:45;9.00;99.90
10678;DHT22;5387;48.722;9.110;2024-02-04T15:55:13;8.90;99.90
10678;DHT22;5387;48.722;9.110;2024-02-04T15:57:44;8.80;99.90
10678;DHT22;5387;48.722;9.110;2024-02-04T16:00:13;8.80;99.90
10678;DHT22;5387;48.722;9.110;2024-02-04T16:02:48;8.80;99.90